sensor_id;sensor_type;location;lat;lon;timestamp;P1;durP1;ratioP1;P2;durP2;ratioP2
43337;SDS011;28933;52.492;13.434;2023-04-29T00:01:17;8.23;;;5.43;;
43337;SDS011;28933;52.492;13.434;2023-04-29T00:03:44;6.90;;;5.32;;
43337;SDS011;28933;52.492;13.434;2023-04-29T00:06:09;7.75;;;5.70;;
43337;SDS011;28933;52.492;13.434;2023-04-29T00:08:38;6.70;;;5.50;;
43337;SDS011;28933;52.492;13.434;2023-04-29T00:11:04;9.88;;;6.05;;
43337;SDS011;28933;52.492;13.434;2023-04-29T00:13:30;8.60;;;5.20;;
43337;SDS011;28933;52.492;13.434;2023-04-29T00:15:55;6.70;;;5.20;;
43337;SDS011;28933;52.492;13.434;2023-04-29T00:18:21;6.72;;;5.53;;
43337;SDS011;28933;52.492;13.434;2023-04-29T00:20:47;6.63;;;5.25;;
43337;SDS011;28933;52.492;13.434;2023-04-29T00:23:12;9.43;;;5.38;;
43337;SDS011;28933;52.492;13.434;2023-04-29T00:25:38;7.88;;;4.95;;
43337;SDS011;28933;52.492;13.434;2023-04-29T00:28:04;7.50;;;4.97;;
43337;SDS011;28933;52.492;13.434;2023-04-29T00:30:30;7.85;;;5.45;;
43337;SDS011;28933;52.492;13.434;2023-04-29T00:32:57;7.13;;;5.30;;
43337;SDS011;28933;52.492;13.434;2023-04-29T00:35:23;7.05;;;5.72;;
43337;SDS011;28933;52.492;13.434;2023-04-29T00:37:48;7.97;;;5.35;;
43337;SDS011;28933;52.492;13.434;2023-04-29T00:40:14;8.80;;;5.63;;
43337;SDS011;28933;52.492;13.434;2023-04-29T00:42:40;8.73;;;5.30;;
43337;SDS011;28933;52.492;13.434;2023-04-29T00:45:06;7.38;;;5.32;;
43337;SDS011;28933;52.492;13.434;2023-04-29T00:47:33;6.65;;;5.32;;
43337;SDS011;28933;52.492;13.434;2023-04-29T00:49:59;7.75;;;5.43;;
43337;SDS011;28933;52.492;13.434;2023-04-29T00:52:25;6.18;;;5.55;;
43337;SDS011;28933;52.492;13.434;2023-04-29T00:54:53;9.60;;;6.15;;
43337;SDS011;28933;52.492;13.434;2023-04-29T00:57:19;7.80;;;5.25;;
43337;SDS011;28933;52.492;13.434;2023-04-29T00:59:46;7.47;;;5.90;;
43337;SDS011;28933;52.492;13.434;2023-04-29T01:02:12;6.90;;;5.47;;
43337;SDS011;28933;52.492;13.434;2023-04-29T01:04:38;7.65;;;5.10;;
43337;SDS011;28933;52.492;13.434;2023-04-29T01:07:16;6.90;;;5.28;;
43337;SDS011;28933;52.492;13.434;2023-04-29T01:18:14;8.15;;;5.35;;
43337;SDS011;28933;52.492;13.434;2023-04-29T01:20:34;7.63;;;5.95;;
43337;SDS011;28933;52.492;13.434;2023-04-29T01:23:01;10.57;;;6.07;;
43337;SDS011;28933;52.492;13.434;2023-04-29T01:25:27;7.20;;;6.30;;
43337;SDS011;28933;52.492;13.434;2023-04-29T01:27:59;8.35;;;5.97;;
43337;SDS011;28933;52.492;13.434;2023-04-29T01:31:03;11.70;;;6.10;;
43337;SDS011;28933;52.492;13.434;2023-04-29T01:44:17;8.00;;;6.65;;
43337;SDS011;28933;52.492;13.434;2023-04-29T01:46:51;8.75;;;7.10;;
43337;SDS011;28933;52.492;13.434;2023-04-29T01:49:23;8.73;;;6.35;;
43337;SDS011;28933;52.492;13.434;2023-04-29T01:51:49;10.63;;;6.72;;
43337;SDS011;28933;52.492;13.434;2023-04-29T01:54:15;8.65;;;6.85;;
43337;SDS011;28933;52.492;13.434;2023-04-29T01:56:40;8.88;;;6.15;;
43337;SDS011;28933;52.492;13.434;2023-04-29T01:59:06;6.90;;;6.20;;
43337;SDS011;28933;52.492;13.434;2023-04-29T02:01:32;15.82;;;7.25;;
43337;SDS011;28933;52.492;13.434;2023-04-29T02:03:58;9.73;;;7.32;;
43337;SDS011;28933;52.492;13.434;2023-04-29T02:06:23;8.45;;;6.57;;
43337;SDS011;28933;52.492;13.434;2023-04-29T02:08:52;9.18;;;7.97;;
43337;SDS011;28933;52.492;13.434;2023-04-29T02:11:18;10.68;;;7.57;;
43337;SDS011;28933;52.492;13.434;2023-04-29T02:13:45;9.25;;;7.43;;
43337;SDS011;28933;52.492;13.434;2023-04-29T02:16:12;10.25;;;8.20;;
43337;SDS011;28933;52.492;13.434;2023-04-29T02:18:38;8.25;;;7.40;;
43337;SDS011;28933;52.492;13.434;2023-04-29T02:21:05;12.75;;;7.57;;
43337;SDS011;28933;52.492;13.434;2023-04-29T02:23:31;11.48;;;7.82;;
43337;SDS011;28933;52.492;13.434;2023-04-29T02:25:57;10.48;;;8.30;;
43337;SDS011;28933;52.492;13.434;2023-04-29T02:28:23;10.05;;;7.93;;
43337;SDS011;28933;52.492;13.434;2023-04-29T02:30:49;9.13;;;7.75;;
43337;SDS011;28933;52.492;13.434;2023-04-29T02:33:14;11.00;;;8.32;;
43337;SDS011;28933;52.492;13.434;2023-04-29T02:35:40;10.13;;;8.43;;
43337;SDS011;28933;52.492;13.434;2023-04-29T02:38:06;11.10;;;8.50;;
43337;SDS011;28933;52.492;13.434;2023-04-29T02:40:32;9.70;;;8.48;;
43337;SDS011;28933;52.492;13.434;2023-04-29T02:42:57;11.25;;;8.50;;
43337;SDS011;28933;52.492;13.434;2023-04-29T02:45:23;12.73;;;8.52;;
43337;SDS011;28933;52.492;13.434;2023-04-29T02:47:49;9.32;;;8.38;;
43337;SDS011;28933;52.492;13.434;2023-04-29T02:50:14;10.23;;;8.77;;
43337;SDS011;28933;52.492;13.434;2023-04-29T02:52:40;12.23;;;8.93;;
43337;SDS011;28933;52.492;13.434;2023-04-29T02:55:06;10.85;;;9.27;;
43337;SDS011;28933;52.492;13.434;2023-04-29T02:57:33;12.38;;;8.80;;
43337;SDS011;28933;52.492;13.434;2023-04-29T02:59:58;10.88;;;9.77;;
43337;SDS011;28933;52.492;13.434;2023-04-29T03:02:24;11.10;;;9.20;;
43337;SDS011;28933;52.492;13.434;2023-04-29T03:04:50;11.32;;;9.65;;
43337;SDS011;28933;52.492;13.434;2023-04-29T03:07:16;14.18;;;10.35;;
43337;SDS011;28933;52.492;13.434;2023-04-29T03:09:42;12.52;;;10.27;;
43337;SDS011;28933;52.492;13.434;2023-04-29T03:12:08;11.50;;;9.98;;
43337;SDS011;28933;52.492;13.434;2023-04-29T03:14:33;12.25;;;9.85;;
43337;SDS011;28933;52.492;13.434;2023-04-29T03:17:00;12.63;;;10.13;;
43337;SDS011;28933;52.492;13.434;2023-04-29T03:19:25;11.82;;;9.85;;
43337;SDS011;28933;52.492;13.434;2023-04-29T03:21:51;14.27;;;10.68;;
43337;SDS011;28933;52.492;13.434;2023-04-29T03:24:17;12.88;;;10.88;;
43337;SDS011;28933;52.492;13.434;2023-04-29T03:26:42;12.30;;;10.05;;
43337;SDS011;28933;52.492;13.434;2023-04-29T03:29:08;12.60;;;10.70;;
43337;SDS011;28933;52.492;13.434;2023-04-29T03:31:34;14.15;;;11.55;;
43337;SDS011;28933;52.492;13.434;2023-04-29T03:33:59;11.80;;;10.43;;
43337;SDS011;28933;52.492;13.434;2023-04-29T03:36:25;12.68;;;10.63;;
43337;SDS011;28933;52.492;13.434;2023-04-29T03:38:50;13.50;;;11.40;;
43337;SDS011;28933;52.492;13.434;2023-04-29T03:41:16;13.90;;;11.02;;
43337;SDS011;28933;52.492;13.434;2023-04-29T03:43:42;13.73;;;10.85;;
43337;SDS011;28933;52.492;13.434;2023-04-29T03:46:10;14.52;;;12.02;;
43337;SDS011;28933;52.492;13.434;2023-04-29T03:48:36;13.18;;;11.40;;
43337;SDS011;28933;52.492;13.434;2023-04-29T03:51:01;16.55;;;12.20;;
43337;SDS011;28933;52.492;13.434;2023-04-29T03:53:28;14.45;;;11.95;;
43337;SDS011;28933;52.492;13.434;2023-04-29T03:55:53;15.75;;;12.93;;
43337;SDS011;28933;52.492;13.434;2023-04-29T03:58:19;14.70;;;11.73;;
43337;SDS011;28933;52.492;13.434;2023-04-29T04:00:44;12.60;;;10.57;;
43337;SDS011;28933;52.492;13.434;2023-04-29T04:03:10;12.63;;;11.32;;
43337;SDS011;28933;52.492;13.434;2023-04-29T04:05:36;15.98;;;12.82;;
43337;SDS011;28933;52.492;13.434;2023-04-29T04:08:01;16.38;;;12.98;;
43337;SDS011;28933;52.492;13.434;2023-04-29T04:10:27;16.30;;;13.50;;
43337;SDS011;28933;52.492;13.434;2023-04-29T04:12:53;17.63;;;12.85;;
43337;SDS011;28933;52.492;13.434;2023-04-29T04:15:19;15.55;;;12.95;;
43337;SDS011;28933;52.492;13.434;2023-04-29T04:17:46;16.02;;;12.73;;
43337;SDS011;28933;52.492;13.434;2023-04-29T04:20:12;14.68;;;12.25;;
43337;SDS011;28933;52.492;13.434;2023-04-29T04:22:37;16.08;;;12.95;;
43337;SDS011;28933;52.492;13.434;2023-04-29T04:25:03;19.02;;;13.13;;
43337;SDS011;28933;52.492;13.434;2023-04-29T04:27:29;19.95;;;13.88;;
43337;SDS011;28933;52.492;13.434;2023-04-29T04:29:55;14.25;;;12.15;;
43337;SDS011;28933;52.492;13.434;2023-04-29T04:32:21;16.67;;;14.05;;
43337;SDS011;28933;52.492;13.434;2023-04-29T04:34:47;15.38;;;12.50;;
43337;SDS011;28933;52.492;13.434;2023-04-29T04:37:13;16.35;;;12.80;;
43337;SDS011;28933;52.492;13.434;2023-04-29T04:39:40;18.40;;;15.15;;
43337;SDS011;28933;52.492;13.434;2023-04-29T04:42:05;17.27;;;14.07;;
43337;SDS011;28933;52.492;13.434;2023-04-29T04:44:31;19.92;;;14.15;;
43337;SDS011;28933;52.492;13.434;2023-04-29T04:46:57;17.13;;;13.93;;
43337;SDS011;28933;52.492;13.434;2023-04-29T04:49:25;19.65;;;14.80;;
43337;SDS011;28933;52.492;13.434;2023-04-29T04:51:51;17.90;;;13.73;;
43337;SDS011;28933;52.492;13.434;2023-04-29T04:54:17;17.08;;;14.00;;
43337;SDS011;28933;52.492;13.434;2023-04-29T04:56:43;20.90;;;14.68;;
43337;SDS011;28933;52.492;13.434;2023-04-29T04:59:08;16.25;;;13.55;;
43337;SDS011;28933;52.492;13.434;2023-04-29T05:01:34;17.13;;;14.23;;
43337;SDS011;28933;52.492;13.434;2023-04-29T05:04:00;18.30;;;14.20;;
43337;SDS011;28933;52.492;13.434;2023-04-29T05:06:26;17.33;;;14.63;;
43337;SDS011;28933;52.492;13.434;2023-04-29T05:08:52;19.70;;;15.88;;
43337;SDS011;28933;52.492;13.434;2023-04-29T05:11:18;18.45;;;14.90;;
43337;SDS011;28933;52.492;13.434;2023-04-29T05:13:45;19.17;;;14.80;;
43337;SDS011;28933;52.492;13.434;2023-04-29T05:16:10;18.77;;;14.63;;
43337;SDS011;28933;52.492;13.434;2023-04-29T05:18:36;16.67;;;14.07;;
43337;SDS011;28933;52.492;13.434;2023-04-29T05:21:02;18.38;;;15.52;;
43337;SDS011;28933;52.492;13.434;2023-04-29T05:23:28;19.80;;;15.20;;
43337;SDS011;28933;52.492;13.434;2023-04-29T05:25:53;19.88;;;14.35;;
43337;SDS011;28933;52.492;13.434;2023-04-29T05:28:19;18.88;;;15.15;;
43337;SDS011;28933;52.492;13.434;2023-04-29T05:30:45;18.92;;;15.32;;
43337;SDS011;28933;52.492;13.434;2023-04-29T05:33:11;19.92;;;14.57;;
43337;SDS011;28933;52.492;13.434;2023-04-29T05:35:37;19.05;;;14.75;;
43337;SDS011;28933;52.492;13.434;2023-04-29T05:38:02;21.20;;;15.07;;
43337;SDS011;28933;52.492;13.434;2023-04-29T05:40:28;18.30;;;14.82;;
43337;SDS011;28933;52.492;13.434;2023-04-29T05:42:54;20.52;;;15.48;;
43337;SDS011;28933;52.492;13.434;2023-04-29T05:45:19;18.27;;;14.00;;
43337;SDS011;28933;52.492;13.434;2023-04-29T05:47:45;20.13;;;15.27;;
43337;SDS011;28933;52.492;13.434;2023-04-29T05:50:11;19.25;;;15.10;;
43337;SDS011;28933;52.492;13.434;2023-04-29T05:52:37;17.95;;;14.23;;
43337;SDS011;28933;52.492;13.434;2023-04-29T05:55:03;18.88;;;15.05;;
43337;SDS011;28933;52.492;13.434;2023-04-29T05:57:29;18.08;;;14.68;;
43337;SDS011;28933;52.492;13.434;2023-04-29T05:59:55;18.52;;;15.10;;
43337;SDS011;28933;52.492;13.434;2023-04-29T06:02:21;17.98;;;14.60;;
43337;SDS011;28933;52.492;13.434;2023-04-29T06:04:47;17.90;;;14.45;;
43337;SDS011;28933;52.492;13.434;2023-04-29T06:07:12;16.42;;;13.65;;
43337;SDS011;28933;52.492;13.434;2023-04-29T06:09:38;19.38;;;13.75;;
43337;SDS011;28933;52.492;13.434;2023-04-29T06:12:04;19.45;;;15.23;;
43337;SDS011;28933;52.492;13.434;2023-04-29T06:14:30;17.55;;;13.77;;
43337;SDS011;28933;52.492;13.434;2023-04-29T06:16:55;15.88;;;13.57;;
43337;SDS011;28933;52.492;13.434;2023-04-29T06:19:21;17.30;;;13.98;;
43337;SDS011;28933;52.492;13.434;2023-04-29T06:21:47;18.50;;;15.35;;
43337;SDS011;28933;52.492;13.434;2023-04-29T06:24:13;17.83;;;14.52;;
43337;SDS011;28933;52.492;13.434;2023-04-29T06:26:39;17.58;;;14.10;;
43337;SDS011;28933;52.492;13.434;2023-04-29T06:29:04;18.27;;;14.40;;
43337;SDS011;28933;52.492;13.434;2023-04-29T06:31:30;17.20;;;14.25;;
43337;SDS011;28933;52.492;13.434;2023-04-29T06:33:55;18.13;;;13.98;;
43337;SDS011;28933;52.492;13.434;2023-04-29T06:36:21;16.85;;;13.55;;
43337;SDS011;28933;52.492;13.434;2023-04-29T06:38:47;16.63;;;13.50;;
43337;SDS011;28933;52.492;13.434;2023-04-29T06:41:12;15.38;;;12.70;;
43337;SDS011;28933;52.492;13.434;2023-04-29T06:43:38;18.27;;;12.82;;
43337;SDS011;28933;52.492;13.434;2023-04-29T06:46:04;16.65;;;13.05;;
43337;SDS011;28933;52.492;13.434;2023-04-29T06:48:30;16.85;;;12.82;;
43337;SDS011;28933;52.492;13.434;2023-04-29T06:50:56;16.63;;;12.52;;
43337;SDS011;28933;52.492;13.434;2023-04-29T06:53:22;15.48;;;12.50;;
43337;SDS011;28933;52.492;13.434;2023-04-29T06:55:48;15.23;;;11.55;;
43337;SDS011;28933;52.492;13.434;2023-04-29T06:58:15;15.55;;;12.23;;
43337;SDS011;28933;52.492;13.434;2023-04-29T07:00:45;15.80;;;12.25;;
43337;SDS011;28933;52.492;13.434;2023-04-29T07:03:12;17.30;;;12.48;;
43337;SDS011;28933;52.492;13.434;2023-04-29T07:05:38;15.10;;;11.75;;
43337;SDS011;28933;52.492;13.434;2023-04-29T07:08:05;14.52;;;11.38;;
43337;SDS011;28933;52.492;13.434;2023-04-29T07:10:31;13.57;;;10.25;;
43337;SDS011;28933;52.492;13.434;2023-04-29T07:12:57;15.70;;;11.65;;
43337;SDS011;28933;52.492;13.434;2023-04-29T07:15:24;15.93;;;11.23;;
43337;SDS011;28933;52.492;13.434;2023-04-29T07:17:54;14.50;;;10.93;;
43337;SDS011;28933;52.492;13.434;2023-04-29T07:20:19;13.73;;;10.63;;
43337;SDS011;28933;52.492;13.434;2023-04-29T07:22:45;13.82;;;10.75;;
43337;SDS011;28933;52.492;13.434;2023-04-29T07:25:11;14.52;;;10.57;;
43337;SDS011;28933;52.492;13.434;2023-04-29T07:27:36;15.18;;;10.13;;
43337;SDS011;28933;52.492;13.434;2023-04-29T07:30:03;13.80;;;10.02;;
43337;SDS011;28933;52.492;13.434;2023-04-29T07:32:30;15.00;;;10.45;;
43337;SDS011;28933;52.492;13.434;2023-04-29T07:34:56;16.38;;;9.18;;
43337;SDS011;28933;52.492;13.434;2023-04-29T07:37:21;15.45;;;10.55;;
43337;SDS011;28933;52.492;13.434;2023-04-29T07:39:47;16.45;;;11.88;;
43337;SDS011;28933;52.492;13.434;2023-04-29T07:42:13;16.30;;;10.82;;
43337;SDS011;28933;52.492;13.434;2023-04-29T07:44:38;18.90;;;12.70;;
43337;SDS011;28933;52.492;13.434;2023-04-29T07:47:04;17.83;;;11.40;;
43337;SDS011;28933;52.492;13.434;2023-04-29T07:49:30;19.23;;;12.88;;
43337;SDS011;28933;52.492;13.434;2023-04-29T07:51:56;17.38;;;12.25;;
43337;SDS011;28933;52.492;13.434;2023-04-29T07:54:21;18.92;;;11.88;;
43337;SDS011;28933;52.492;13.434;2023-04-29T07:56:47;16.60;;;10.98;;
43337;SDS011;28933;52.492;13.434;2023-04-29T07:59:13;16.55;;;12.63;;
43337;SDS011;28933;52.492;13.434;2023-04-29T08:01:39;16.05;;;12.75;;
43337;SDS011;28933;52.492;13.434;2023-04-29T08:04:06;13.45;;;11.23;;
43337;SDS011;28933;52.492;13.434;2023-04-29T08:06:32;17.20;;;11.88;;
43337;SDS011;28933;52.492;13.434;2023-04-29T08:08:58;17.48;;;12.45;;
43337;SDS011;28933;52.492;13.434;2023-04-29T08:11:24;12.82;;;8.90;;
43337;SDS011;28933;52.492;13.434;2023-04-29T08:13:51;12.18;;;9.07;;
43337;SDS011;28933;52.492;13.434;2023-04-29T08:16:16;11.63;;;8.88;;
43337;SDS011;28933;52.492;13.434;2023-04-29T08:18:42;12.65;;;9.20;;
43337;SDS011;28933;52.492;13.434;2023-04-29T08:21:08;10.10;;;7.78;;
43337;SDS011;28933;52.492;13.434;2023-04-29T08:23:38;13.63;;;8.77;;
43337;SDS011;28933;52.492;13.434;2023-04-29T08:26:04;10.23;;;8.48;;
43337;SDS011;28933;52.492;13.434;2023-04-29T08:28:30;10.40;;;7.97;;
43337;SDS011;28933;52.492;13.434;2023-04-29T08:30:56;10.45;;;7.82;;
43337;SDS011;28933;52.492;13.434;2023-04-29T08:33:21;10.20;;;8.60;;
43337;SDS011;28933;52.492;13.434;2023-04-29T08:35:47;9.70;;;8.00;;
43337;SDS011;28933;52.492;13.434;2023-04-29T08:38:13;10.07;;;7.70;;
43337;SDS011;28933;52.492;13.434;2023-04-29T08:40:43;12.63;;;9.57;;
43337;SDS011;28933;52.492;13.434;2023-04-29T08:43:11;11.88;;;9.43;;
43337;SDS011;28933;52.492;13.434;2023-04-29T08:45:38;9.55;;;7.38;;
43337;SDS011;28933;52.492;13.434;2023-04-29T08:48:05;10.80;;;8.75;;
43337;SDS011;28933;52.492;13.434;2023-04-29T08:50:35;11.93;;;9.68;;
43337;SDS011;28933;52.492;13.434;2023-04-29T08:53:04;12.10;;;9.50;;
43337;SDS011;28933;52.492;13.434;2023-04-29T08:58:06;10.70;;;8.38;;
43337;SDS011;28933;52.492;13.434;2023-04-29T09:00:33;11.55;;;9.10;;
43337;SDS011;28933;52.492;13.434;2023-04-29T09:02:59;13.50;;;9.32;;
43337;SDS011;28933;52.492;13.434;2023-04-29T09:05:29;11.38;;;9.00;;
43337;SDS011;28933;52.492;13.434;2023-04-29T09:07:55;12.82;;;10.00;;
43337;SDS011;28933;52.492;13.434;2023-04-29T09:10:23;14.55;;;11.07;;
43337;SDS011;28933;52.492;13.434;2023-04-29T09:12:50;15.10;;;10.68;;
43337;SDS011;28933;52.492;13.434;2023-04-29T09:15:15;14.95;;;10.32;;
43337;SDS011;28933;52.492;13.434;2023-04-29T09:20:24;14.13;;;9.95;;
43337;SDS011;28933;52.492;13.434;2023-04-29T09:22:52;16.20;;;12.70;;
43337;SDS011;28933;52.492;13.434;2023-04-29T09:25:19;19.35;;;12.32;;
43337;SDS011;28933;52.492;13.434;2023-04-29T09:27:45;15.25;;;11.93;;
43337;SDS011;28933;52.492;13.434;2023-04-29T09:30:10;15.50;;;12.93;;
43337;SDS011;28933;52.492;13.434;2023-04-29T09:32:37;16.70;;;11.90;;
43337;SDS011;28933;52.492;13.434;2023-04-29T09:37:49;20.88;;;14.65;;
43337;SDS011;28933;52.492;13.434;2023-04-29T09:42:56;20.20;;;13.93;;
43337;SDS011;28933;52.492;13.434;2023-04-29T09:45:32;18.58;;;13.20;;
43337;SDS011;28933;52.492;13.434;2023-04-29T09:48:06;21.45;;;14.30;;
43337;SDS011;28933;52.492;13.434;2023-04-29T09:50:32;20.02;;;14.27;;
43337;SDS011;28933;52.492;13.434;2023-04-29T09:53:01;23.55;;;15.77;;
43337;SDS011;28933;52.492;13.434;2023-04-29T09:55:27;20.88;;;15.00;;
43337;SDS011;28933;52.492;13.434;2023-04-29T09:57:56;22.58;;;16.88;;
43337;SDS011;28933;52.492;13.434;2023-04-29T10:00:22;24.95;;;16.60;;
43337;SDS011;28933;52.492;13.434;2023-04-29T10:02:52;27.58;;;18.45;;
43337;SDS011;28933;52.492;13.434;2023-04-29T10:05:21;27.38;;;19.65;;
43337;SDS011;28933;52.492;13.434;2023-04-29T10:07:47;22.73;;;16.80;;
43337;SDS011;28933;52.492;13.434;2023-04-29T10:10:14;26.38;;;18.05;;
43337;SDS011;28933;52.492;13.434;2023-04-29T10:12:40;28.80;;;18.92;;
43337;SDS011;28933;52.492;13.434;2023-04-29T10:15:51;25.15;;;16.48;;
43337;SDS011;28933;52.492;13.434;2023-04-29T10:20:49;30.33;;;19.70;;
43337;SDS011;28933;52.492;13.434;2023-04-29T10:23:16;32.40;;;24.00;;
43337;SDS011;28933;52.492;13.434;2023-04-29T10:25:44;32.08;;;21.40;;
43337;SDS011;28933;52.492;13.434;2023-04-29T10:28:12;32.13;;;24.73;;
43337;SDS011;28933;52.492;13.434;2023-04-29T10:30:47;42.15;;;27.50;;
43337;SDS011;28933;52.492;13.434;2023-04-29T10:33:15;37.25;;;26.98;;
43337;SDS011;28933;52.492;13.434;2023-04-29T10:41:01;38.17;;;25.08;;
43337;SDS011;28933;52.492;13.434;2023-04-29T10:43:31;41.58;;;27.88;;
43337;SDS011;28933;52.492;13.434;2023-04-29T10:48:44;31.58;;;20.17;;
43337;SDS011;28933;52.492;13.434;2023-04-29T10:54:27;30.77;;;19.92;;
43337;SDS011;28933;52.492;13.434;2023-04-29T10:56:53;30.15;;;22.88;;
43337;SDS011;28933;52.492;13.434;2023-04-29T10:59:20;31.23;;;23.15;;
43337;SDS011;28933;52.492;13.434;2023-04-29T11:02:06;26.52;;;20.85;;
43337;SDS011;28933;52.492;13.434;2023-04-29T11:04:33;27.55;;;21.58;;
43337;SDS011;28933;52.492;13.434;2023-04-29T11:06:59;28.85;;;20.67;;
43337;SDS011;28933;52.492;13.434;2023-04-29T11:09:26;25.42;;;19.65;;
43337;SDS011;28933;52.492;13.434;2023-04-29T11:12:11;26.48;;;20.02;;
43337;SDS011;28933;52.492;13.434;2023-04-29T11:14:53;25.20;;;19.23;;
43337;SDS011;28933;52.492;13.434;2023-04-29T11:17:26;21.33;;;18.10;;
43337;SDS011;28933;52.492;13.434;2023-04-29T11:20:00;23.48;;;19.10;;
43337;SDS011;28933;52.492;13.434;2023-04-29T11:22:26;25.92;;;18.60;;
43337;SDS011;28933;52.492;13.434;2023-04-29T11:25:04;21.45;;;16.55;;
43337;SDS011;28933;52.492;13.434;2023-04-29T11:29:58;23.45;;;19.38;;
43337;SDS011;28933;52.492;13.434;2023-04-29T11:32:28;22.35;;;18.15;;
43337;SDS011;28933;52.492;13.434;2023-04-29T11:35:08;22.23;;;18.88;;
43337;SDS011;28933;52.492;13.434;2023-04-29T11:37:36;22.60;;;17.75;;
43337;SDS011;28933;52.492;13.434;2023-04-29T11:40:02;22.77;;;16.48;;
43337;SDS011;28933;52.492;13.434;2023-04-29T11:42:29;20.00;;;15.40;;
43337;SDS011;28933;52.492;13.434;2023-04-29T11:44:54;22.98;;;17.30;;
43337;SDS011;28933;52.492;13.434;2023-04-29T11:47:28;21.52;;;15.75;;
43337;SDS011;28933;52.492;13.434;2023-04-29T11:50:07;18.55;;;14.40;;
43337;SDS011;28933;52.492;13.434;2023-04-29T11:52:34;21.50;;;15.02;;
43337;SDS011;28933;52.492;13.434;2023-04-29T11:55:02;22.10;;;14.23;;
43337;SDS011;28933;52.492;13.434;2023-04-29T11:57:28;19.48;;;14.32;;
43337;SDS011;28933;52.492;13.434;2023-04-29T11:59:54;19.52;;;13.77;;
43337;SDS011;28933;52.492;13.434;2023-04-29T12:02:21;18.55;;;14.20;;
43337;SDS011;28933;52.492;13.434;2023-04-29T12:04:48;17.52;;;12.43;;
43337;SDS011;28933;52.492;13.434;2023-04-29T12:07:14;17.73;;;13.65;;
43337;SDS011;28933;52.492;13.434;2023-04-29T12:09:41;18.70;;;12.00;;
43337;SDS011;28933;52.492;13.434;2023-04-29T12:12:10;20.27;;;12.90;;
43337;SDS011;28933;52.492;13.434;2023-04-29T12:14:37;18.63;;;11.65;;
43337;SDS011;28933;52.492;13.434;2023-04-29T12:17:04;12.98;;;9.93;;
43337;SDS011;28933;52.492;13.434;2023-04-29T12:19:30;13.90;;;9.95;;
43337;SDS011;28933;52.492;13.434;2023-04-29T12:21:59;13.45;;;11.05;;
43337;SDS011;28933;52.492;13.434;2023-04-29T12:24:27;15.07;;;11.00;;
43337;SDS011;28933;52.492;13.434;2023-04-29T12:26:54;16.30;;;11.30;;
43337;SDS011;28933;52.492;13.434;2023-04-29T12:29:20;12.88;;;10.70;;
43337;SDS011;28933;52.492;13.434;2023-04-29T12:31:49;14.88;;;11.02;;
43337;SDS011;28933;52.492;13.434;2023-04-29T12:34:15;15.52;;;11.68;;
43337;SDS011;28933;52.492;13.434;2023-04-29T12:36:41;16.17;;;12.70;;
43337;SDS011;28933;52.492;13.434;2023-04-29T12:39:07;16.40;;;11.52;;
43337;SDS011;28933;52.492;13.434;2023-04-29T12:41:35;14.48;;;12.55;;
43337;SDS011;28933;52.492;13.434;2023-04-29T12:44:02;14.30;;;11.60;;
43337;SDS011;28933;52.492;13.434;2023-04-29T12:46:32;14.60;;;10.05;;
43337;SDS011;28933;52.492;13.434;2023-04-29T12:49:01;13.98;;;9.38;;
43337;SDS011;28933;52.492;13.434;2023-04-29T12:51:28;12.63;;;9.10;;
43337;SDS011;28933;52.492;13.434;2023-04-29T12:53:56;14.52;;;10.07;;
43337;SDS011;28933;52.492;13.434;2023-04-29T12:56:22;16.40;;;10.77;;
43337;SDS011;28933;52.492;13.434;2023-04-29T12:58:48;12.35;;;8.65;;
43337;SDS011;28933;52.492;13.434;2023-04-29T13:01:13;13.43;;;8.88;;
43337;SDS011;28933;52.492;13.434;2023-04-29T13:03:40;11.48;;;6.57;;
43337;SDS011;28933;52.492;13.434;2023-04-29T13:06:06;10.88;;;6.82;;
43337;SDS011;28933;52.492;13.434;2023-04-29T13:08:32;10.18;;;7.43;;
43337;SDS011;28933;52.492;13.434;2023-04-29T13:10:58;9.13;;;6.20;;
43337;SDS011;28933;52.492;13.434;2023-04-29T13:13:24;7.70;;;5.85;;
43337;SDS011;28933;52.492;13.434;2023-04-29T13:15:49;8.73;;;6.75;;
43337;SDS011;28933;52.492;13.434;2023-04-29T13:18:15;9.32;;;6.00;;
43337;SDS011;28933;52.492;13.434;2023-04-29T13:20:41;10.32;;;6.63;;
43337;SDS011;28933;52.492;13.434;2023-04-29T13:23:06;7.68;;;5.85;;
43337;SDS011;28933;52.492;13.434;2023-04-29T13:25:32;7.95;;;5.80;;
43337;SDS011;28933;52.492;13.434;2023-04-29T13:27:58;8.65;;;5.45;;
43337;SDS011;28933;52.492;13.434;2023-04-29T13:30:23;6.75;;;5.50;;
43337;SDS011;28933;52.492;13.434;2023-04-29T13:32:49;10.30;;;6.55;;
43337;SDS011;28933;52.492;13.434;2023-04-29T13:35:15;8.13;;;5.90;;
43337;SDS011;28933;52.492;13.434;2023-04-29T13:37:40;9.77;;;5.72;;
43337;SDS011;28933;52.492;13.434;2023-04-29T13:40:06;6.30;;;5.07;;
43337;SDS011;28933;52.492;13.434;2023-04-29T13:42:32;6.25;;;4.80;;
43337;SDS011;28933;52.492;13.434;2023-04-29T13:44:58;7.57;;;5.32;;
43337;SDS011;28933;52.492;13.434;2023-04-29T13:47:23;7.47;;;4.95;;
43337;SDS011;28933;52.492;13.434;2023-04-29T13:49:49;7.40;;;4.95;;
43337;SDS011;28933;52.492;13.434;2023-04-29T13:52:15;9.25;;;5.55;;
43337;SDS011;28933;52.492;13.434;2023-04-29T13:54:40;8.90;;;5.38;;
43337;SDS011;28933;52.492;13.434;2023-04-29T13:57:06;6.57;;;5.03;;
43337;SDS011;28933;52.492;13.434;2023-04-29T13:59:32;8.82;;;6.13;;
43337;SDS011;28933;52.492;13.434;2023-04-29T14:01:59;7.18;;;5.05;;
43337;SDS011;28933;52.492;13.434;2023-04-29T14:04:25;8.75;;;5.05;;
43337;SDS011;28933;52.492;13.434;2023-04-29T14:06:51;10.18;;;6.30;;
43337;SDS011;28933;52.492;13.434;2023-04-29T14:09:19;12.43;;;6.25;;
43337;SDS011;28933;52.492;13.434;2023-04-29T14:11:46;10.00;;;5.97;;
43337;SDS011;28933;52.492;13.434;2023-04-29T14:14:12;7.60;;;6.05;;
43337;SDS011;28933;52.492;13.434;2023-04-29T14:16:38;9.63;;;6.03;;
43337;SDS011;28933;52.492;13.434;2023-04-29T14:19:04;8.15;;;6.70;;
43337;SDS011;28933;52.492;13.434;2023-04-29T14:21:31;9.70;;;6.80;;
43337;SDS011;28933;52.492;13.434;2023-04-29T14:24:01;9.02;;;5.60;;
43337;SDS011;28933;52.492;13.434;2023-04-29T14:26:27;9.48;;;6.28;;
43337;SDS011;28933;52.492;13.434;2023-04-29T14:28:59;9.63;;;6.60;;
43337;SDS011;28933;52.492;13.434;2023-04-29T14:31:25;10.63;;;7.38;;
43337;SDS011;28933;52.492;13.434;2023-04-29T14:33:52;8.50;;;6.68;;
43337;SDS011;28933;52.492;13.434;2023-04-29T14:36:18;8.00;;;6.15;;
43337;SDS011;28933;52.492;13.434;2023-04-29T14:38:44;11.38;;;6.55;;
43337;SDS011;28933;52.492;13.434;2023-04-29T14:41:10;10.18;;;6.68;;
43337;SDS011;28933;52.492;13.434;2023-04-29T14:43:36;10.48;;;5.82;;
43337;SDS011;28933;52.492;13.434;2023-04-29T14:46:01;10.93;;;7.63;;
43337;SDS011;28933;52.492;13.434;2023-04-29T14:48:27;9.57;;;6.47;;
43337;SDS011;28933;52.492;13.434;2023-04-29T14:50:53;10.13;;;6.60;;
43337;SDS011;28933;52.492;13.434;2023-04-29T14:53:18;8.75;;;6.88;;
43337;SDS011;28933;52.492;13.434;2023-04-29T14:55:46;8.43;;;6.57;;
43337;SDS011;28933;52.492;13.434;2023-04-29T14:58:13;12.05;;;5.40;;
43337;SDS011;28933;52.492;13.434;2023-04-29T15:00:39;8.80;;;6.38;;
43337;SDS011;28933;52.492;13.434;2023-04-29T15:03:04;7.63;;;5.72;;